createdAt,value
2023-05-14T00:01:12.130Z,22.50
2023-05-14T00:03:40.935Z,20.77
2023-05-14T00:06:09.464Z,18.67
2023-05-14T00:08:37.378Z,18.50
2023-05-14T00:11:08.952Z,19.10
2023-05-14T00:13:36.853Z,17.15
2023-05-14T00:16:05.084Z,18.38
2023-05-14T00:18:33.400Z,16.23
2023-05-14T00:21:01.306Z,16.38
2023-05-14T00:23:29.256Z,18.40
2023-05-14T00:25:57.099Z,16.77
2023-05-14T00:28:26.303Z,15.93
2023-05-14T00:30:54.218Z,16.77
2023-05-14T00:33:22.040Z,17.23
2023-05-14T00:35:49.913Z,18.52
2023-05-14T00:38:19.541Z,18.10
2023-05-14T00:40:52.158Z,18.83
2023-05-14T00:43:20.875Z,16.67
2023-05-14T00:45:51.790Z,20.10
2023-05-14T00:48:20.877Z,15.90
2023-05-14T00:50:50.545Z,16.42
2023-05-14T00:53:18.892Z,17.43
2023-05-14T00:55:49.710Z,18.58
2023-05-14T00:58:19.399Z,15.20
2023-05-14T01:00:47.411Z,18.52
2023-05-14T01:03:16.892Z,18.10
2023-05-14T01:06:01.125Z,15.77
2023-05-14T01:08:37.455Z,14.20
2023-05-14T01:11:09.094Z,17.13
2023-05-14T01:13:45.208Z,18.30
2023-05-14T01:16:15.775Z,14.85
2023-05-14T01:18:47.343Z,13.73
2023-05-14T01:21:44.924Z,16.17
2023-05-14T01:24:12.749Z,15.00
2023-05-14T01:26:40.938Z,17.35
2023-05-14T01:29:14.932Z,14.55
2023-05-14T01:31:45.307Z,17.23
2023-05-14T01:34:15.104Z,14.27
2023-05-14T01:36:45.312Z,15.55
2023-05-14T01:39:15.197Z,18.10
2023-05-14T01:41:43.967Z,19.25
2023-05-14T01:44:12.932Z,13.88
2023-05-14T01:46:40.834Z,15.90
2023-05-14T01:49:08.722Z,13.63
2023-05-14T01:51:36.723Z,13.80
2023-05-14T01:54:06.056Z,14.18
2023-05-14T01:56:33.804Z,12.70
2023-05-14T01:59:01.532Z,13.27
2023-05-14T02:01:29.757Z,12.33
2023-05-14T02:03:58.029Z,13.25
2023-05-14T02:06:26.125Z,12.55
2023-05-14T02:08:53.881Z,13.75
2023-05-14T02:11:23.003Z,12.57
2023-05-14T02:13:51.028Z,14.52
2023-05-14T02:16:19.192Z,13.63
2023-05-14T02:18:47.233Z,14.80
2023-05-14T02:21:15.132Z,13.65
2023-05-14T02:23:43.090Z,14.55
2023-05-14T02:26:10.957Z,13.07
2023-05-14T02:28:40.128Z,12.65
2023-05-14T02:31:08.119Z,13.65
2023-05-14T02:33:36.071Z,14.43
2023-05-14T02:36:03.960Z,13.82
2023-05-14T02:38:31.753Z,12.23
2023-05-14T02:40:59.566Z,14.60
2023-05-14T02:43:27.295Z,14.50
2023-05-14T02:45:56.477Z,14.50
2023-05-14T02:48:24.311Z,14.60
2023-05-14T02:50:52.522Z,12.43
2023-05-14T02:53:20.441Z,12.47
2023-05-14T02:55:48.207Z,15.45
2023-05-14T02:58:16.090Z,12.90
2023-05-14T03:00:43.908Z,13.73
2023-05-14T03:03:13.716Z,13.45
2023-05-14T03:05:41.794Z,13.38
2023-05-14T03:08:09.601Z,14.70
2023-05-14T03:10:37.309Z,14.40
2023-05-14T03:13:05.132Z,14.02
2023-05-14T03:15:32.893Z,11.45
2023-05-14T03:18:00.753Z,12.98
2023-05-14T03:20:30.030Z,12.02
2023-05-14T03:22:57.853Z,12.65
2023-05-14T03:25:25.585Z,14.82
2023-05-14T03:27:53.368Z,14.13
2023-05-14T03:30:21.426Z,13.57
2023-05-14T03:32:49.642Z,16.50
2023-05-14T03:35:17.593Z,14.45
2023-05-14T03:37:46.755Z,16.08
2023-05-14T03:40:14.537Z,14.75
2023-05-14T03:42:42.274Z,13.73
2023-05-14T03:45:11.278Z,14.77
2023-05-14T03:47:39.098Z,15.73
2023-05-14T03:50:08.512Z,19.55
2023-05-14T03:52:36.552Z,16.63
2023-05-14T03:55:06.348Z,14.77
2023-05-14T03:57:34.103Z,14.30
2023-05-14T04:00:01.814Z,15.52
2023-05-14T04:02:29.746Z,13.57
2023-05-14T04:04:57.589Z,13.95
2023-05-14T04:07:25.425Z,12.40
2023-05-14T04:09:53.541Z,13.23
2023-05-14T04:12:22.933Z,12.63
2023-05-14T04:14:50.620Z,13.52
2023-05-14T04:17:18.387Z,13.55
2023-05-14T04:19:46.123Z,12.10
2023-05-14T04:22:13.993Z,12.10
2023-05-14T04:24:42.067Z,13.23
2023-05-14T04:27:09.912Z,13.07
2023-05-14T04:29:38.931Z,12.70
2023-05-14T04:32:07.933Z,12.82
2023-05-14T04:34:35.828Z,11.83
2023-05-14T04:37:04.205Z,10.38
2023-05-14T04:39:31.962Z,10.10
2023-05-14T04:41:59.707Z,11.02
2023-05-14T04:44:27.678Z,9.95
2023-05-14T04:46:57.165Z,9.02
2023-05-14T04:49:25.083Z,9.20
2023-05-14T04:51:53.571Z,10.33
2023-05-14T04:54:21.665Z,10.18
2023-05-14T04:56:49.689Z,13.43
2023-05-14T04:59:17.590Z,9.38
2023-05-14T05:01:46.305Z,11.93
2023-05-14T05:04:15.610Z,11.52
2023-05-14T05:06:43.376Z,11.32
2023-05-14T05:09:11.238Z,11.55
2023-05-14T05:11:38.979Z,11.07
2023-05-14T05:14:06.788Z,11.15
2023-05-14T05:16:34.614Z,13.15
2023-05-14T05:19:03.313Z,13.55
2023-05-14T05:21:32.779Z,12.52
2023-05-14T05:24:00.662Z,16.00
2023-05-14T05:26:28.517Z,13.80
2023-05-14T05:28:56.353Z,12.13
2023-05-14T05:31:24.612Z,14.10
2023-05-14T05:33:52.404Z,15.48
2023-05-14T05:36:20.175Z,13.70
2023-05-14T05:38:49.385Z,13.52
2023-05-14T05:41:17.144Z,13.25
2023-05-14T05:43:44.916Z,15.05
2023-05-14T05:46:13.123Z,14.23
2023-05-14T05:48:40.925Z,14.30
2023-05-14T05:51:08.948Z,15.70
2023-05-14T05:53:36.845Z,13.30
2023-05-14T05:56:06.984Z,13.13
2023-05-14T05:58:35.006Z,12.73
2023-05-14T06:01:02.923Z,13.23
2023-05-14T06:03:30.970Z,11.30
2023-05-14T06:05:58.955Z,12.10
2023-05-14T06:08:26.883Z,12.67
2023-05-14T06:10:54.650Z,13.63
2023-05-14T06:13:23.882Z,12.48
2023-05-14T06:15:51.772Z,12.55
2023-05-14T06:18:19.769Z,14.48
2023-05-14T06:20:47.804Z,13.75
2023-05-14T06:23:15.590Z,13.45
2023-05-14T06:25:43.480Z,11.18
2023-05-14T06:28:11.379Z,11.75
2023-05-14T06:30:40.512Z,13.18
2023-05-14T06:33:08.305Z,11.68
2023-05-14T06:35:37.002Z,11.97
2023-05-14T06:38:04.772Z,12.40
2023-05-14T06:40:32.837Z,10.40
2023-05-14T06:43:00.744Z,12.15
2023-05-14T06:45:28.621Z,9.55
2023-05-14T06:47:58.080Z,9.70
2023-05-14T06:50:26.083Z,10.45
2023-05-14T06:52:53.854Z,12.13
2023-05-14T06:55:21.826Z,8.43
2023-05-14T06:57:50.613Z,10.55
2023-05-14T07:00:19.221Z,9.90
2023-05-14T07:02:47.447Z,8.95
2023-05-14T07:05:16.882Z,10.20
2023-05-14T07:07:44.660Z,7.77
2023-05-14T07:10:12.589Z,9.60
2023-05-14T07:12:40.379Z,8.40
2023-05-14T07:15:10.113Z,8.20
2023-05-14T07:17:38.020Z,8.15
2023-05-14T07:20:07.087Z,7.93
2023-05-14T07:22:36.186Z,8.60
2023-05-14T07:25:04.004Z,10.75
2023-05-14T07:27:32.119Z,9.88
2023-05-14T07:30:00.200Z,11.23
2023-05-14T07:32:28.146Z,9.20
2023-05-14T07:34:56.265Z,7.78
2023-05-14T07:37:26.045Z,6.63
2023-05-14T07:39:56.175Z,10.60
2023-05-14T07:42:35.315Z,8.10
2023-05-14T07:45:04.152Z,5.57
2023-05-14T07:47:33.190Z,5.93
2023-05-14T07:50:01.396Z,6.67
2023-05-14T07:52:29.302Z,5.82
2023-05-14T07:54:58.624Z,5.25
2023-05-14T07:57:26.680Z,6.60
2023-05-14T07:59:54.424Z,4.88
2023-05-14T08:02:22.257Z,5.83
2023-05-14T08:04:50.473Z,5.55
2023-05-14T08:07:18.500Z,6.50
2023-05-14T08:09:46.268Z,6.40
2023-05-14T08:12:16.140Z,5.90
2023-05-14T08:14:44.112Z,4.88
2023-05-14T08:17:11.928Z,4.80
2023-05-14T08:19:39.813Z,5.43
2023-05-14T08:22:07.636Z,4.60
2023-05-14T08:24:35.566Z,5.80
2023-05-14T08:27:03.498Z,4.93
2023-05-14T08:29:33.007Z,5.95
2023-05-14T08:32:08.458Z,6.22
2023-05-14T08:34:44.081Z,4.03
2023-05-14T08:37:12.364Z,4.80
2023-05-14T08:39:40.127Z,4.55
2023-05-14T08:42:08.911Z,3.75
2023-05-14T08:44:42.961Z,4.32
2023-05-14T08:47:13.050Z,4.72
2023-05-14T08:49:45.316Z,6.10
2023-05-14T08:52:14.038Z,4.07
2023-05-14T08:54:41.905Z,4.07
2023-05-14T08:57:11.464Z,4.78
2023-05-14T08:59:41.307Z,5.43
2023-05-14T09:02:11.192Z,4.72
2023-05-14T09:04:39.788Z,5.07
2023-05-14T09:07:08.608Z,3.90
2023-05-14T09:09:36.606Z,4.25
2023-05-14T09:12:05.200Z,4.43
2023-05-14T09:14:34.359Z,4.87
2023-05-14T09:17:04.327Z,4.25
2023-05-14T09:19:32.336Z,5.15
2023-05-14T09:22:00.182Z,5.70
2023-05-14T09:24:29.625Z,4.07
2023-05-14T09:26:59.273Z,5.20
2023-05-14T09:29:28.685Z,4.85
2023-05-14T09:31:57.618Z,6.13
2023-05-14T09:34:28.237Z,6.13
2023-05-14T09:36:58.261Z,5.20
2023-05-14T09:39:28.539Z,5.07
2023-05-14T09:41:56.929Z,5.57
2023-05-14T09:44:25.707Z,5.53
2023-05-14T09:46:54.634Z,6.15
2023-05-14T09:49:24.683Z,6.13
2023-05-14T09:51:54.009Z,5.72
2023-05-14T09:54:21.739Z,5.90
2023-05-14T09:56:49.631Z,6.63
2023-05-14T09:59:17.424Z,5.55
2023-05-14T10:01:46.474Z,6.32
2023-05-14T10:04:15.531Z,5.35
2023-05-14T10:06:46.395Z,6.47
2023-05-14T10:09:18.380Z,5.63
2023-05-14T10:11:53.052Z,6.70
2023-05-14T10:14:26.073Z,5.30
2023-05-14T10:16:54.978Z,6.07
2023-05-14T10:19:25.833Z,5.97
2023-05-14T10:21:57.591Z,6.43
2023-05-14T10:24:27.697Z,5.00
2023-05-14T10:26:55.909Z,5.70
2023-05-14T10:29:33.715Z,5.32
2023-05-14T10:32:06.044Z,5.20
2023-05-14T10:34:38.767Z,4.70
2023-05-14T10:37:08.959Z,6.57
2023-05-14T10:39:46.994Z,5.90
2023-05-14T10:42:19.953Z,5.40
2023-05-14T10:44:52.297Z,5.13
2023-05-14T10:47:21.123Z,4.07
2023-05-14T10:49:53.046Z,5.88
2023-05-14T10:52:22.443Z,4.82
2023-05-14T10:54:56.616Z,4.72
2023-05-14T10:57:26.368Z,5.07
2023-05-14T10:59:55.692Z,4.72
2023-05-14T11:02:26.614Z,4.70
2023-05-14T11:05:00.159Z,5.82
2023-05-14T11:07:33.363Z,5.03
2023-05-14T11:10:05.355Z,3.50
2023-05-14T11:12:33.926Z,3.85
2023-05-14T11:15:05.610Z,4.15
2023-05-14T11:17:34.152Z,4.60
2023-05-14T11:20:05.614Z,3.72
2023-05-14T11:22:34.102Z,5.88
2023-05-14T11:25:03.615Z,5.20
2023-05-14T11:27:32.411Z,5.68
2023-05-14T11:30:01.113Z,3.87
2023-05-14T11:32:29.205Z,4.65
2023-05-14T11:34:57.262Z,4.78
2023-05-14T11:37:25.144Z,5.38
2023-05-14T11:39:56.057Z,5.83
2023-05-14T11:42:26.192Z,3.60
2023-05-14T11:44:55.138Z,4.40
2023-05-14T11:47:23.697Z,4.95
2023-05-14T11:49:51.741Z,5.18
2023-05-14T11:52:22.113Z,4.90
2023-05-14T11:54:51.074Z,4.28
2023-05-14T11:57:21.098Z,4.90
2023-05-14T11:59:56.662Z,6.22
2023-05-14T12:02:24.937Z,5.60
2023-05-14T12:04:55.819Z,5.07
2023-05-14T12:07:23.836Z,3.47
2023-05-14T12:09:51.809Z,5.75
2023-05-14T12:12:21.373Z,5.30
2023-05-14T12:14:52.674Z,4.35
2023-05-14T12:17:21.653Z,4.65
2023-05-14T12:19:51.070Z,3.40
2023-05-14T12:22:20.808Z,4.05
2023-05-14T12:24:54.411Z,4.78
2023-05-14T12:27:23.778Z,3.70
2023-05-14T12:30:09.266Z,3.60
2023-05-14T12:32:49.006Z,3.63
2023-05-14T12:35:17.265Z,4.80
2023-05-14T12:37:45.378Z,3.10
2023-05-14T12:40:13.708Z,2.95
2023-05-14T12:42:41.654Z,3.55
2023-05-14T12:45:12.161Z,3.45
2023-05-14T12:47:40.401Z,4.53
2023-05-14T12:50:09.232Z,3.60
2023-05-14T12:52:39.648Z,3.40
2023-05-14T12:55:09.079Z,4.15
2023-05-14T12:57:38.482Z,4.20
2023-05-14T13:00:08.230Z,3.17
2023-05-14T13:02:43.130Z,3.75
2023-05-14T13:05:11.717Z,4.10
2023-05-14T13:07:39.720Z,4.43
2023-05-14T13:10:08.516Z,2.83
2023-05-14T13:12:36.367Z,5.53
2023-05-14T13:15:04.277Z,4.20
2023-05-14T13:17:32.115Z,4.45
2023-05-14T13:20:01.404Z,3.42
2023-05-14T13:22:29.301Z,3.83
2023-05-14T13:24:57.174Z,4.25
2023-05-14T13:27:25.109Z,5.00
2023-05-14T13:29:53.139Z,3.67
2023-05-14T13:32:20.964Z,4.97
2023-05-14T13:34:48.915Z,3.40
2023-05-14T13:37:18.078Z,3.92
2023-05-14T13:39:46.017Z,4.90
2023-05-14T13:42:13.982Z,3.88
2023-05-14T13:44:41.866Z,3.75
2023-05-14T13:47:09.668Z,4.32
2023-05-14T13:49:37.640Z,3.67
2023-05-14T13:52:06.310Z,3.75
2023-05-14T13:54:35.395Z,3.58
2023-05-14T13:57:03.258Z,4.00
2023-05-14T13:59:31.057Z,3.33
2023-05-14T14:01:58.957Z,3.72
2023-05-14T14:04:29.027Z,4.60
2023-05-14T14:06:56.917Z,4.15
2023-05-14T14:09:25.496Z,3.80
2023-05-14T14:11:54.935Z,3.45
2023-05-14T14:14:23.082Z,4.32
2023-05-14T14:16:50.856Z,3.80
2023-05-14T14:19:18.747Z,3.67
2023-05-14T14:21:46.846Z,3.50
2023-05-14T14:24:14.669Z,3.55
2023-05-14T14:26:42.526Z,4.50
2023-05-14T14:29:11.652Z,3.42
2023-05-14T14:31:39.436Z,3.95
2023-05-14T14:34:07.336Z,3.85
2023-05-14T14:36:35.237Z,2.88
2023-05-14T14:39:03.094Z,2.80
2023-05-14T14:41:31.113Z,4.47
2023-05-14T14:43:58.988Z,3.25
2023-05-14T14:46:28.301Z,3.43
2023-05-14T14:48:56.105Z,3.88
2023-05-14T14:51:23.963Z,5.28
2023-05-14T14:53:51.772Z,5.13
2023-05-14T14:56:19.471Z,3.50
2023-05-14T14:58:47.180Z,3.10
2023-05-14T15:01:15.383Z,3.35
2023-05-14T15:03:45.680Z,3.13
2023-05-14T15:06:13.701Z,2.50
2023-05-14T15:08:41.607Z,2.88
2023-05-14T15:11:09.615Z,3.38
2023-05-14T15:13:37.444Z,2.90
2023-05-14T15:16:05.417Z,2.45
2023-05-14T15:18:33.441Z,3.38
2023-05-14T15:21:02.627Z,2.88
2023-05-14T15:23:30.504Z,3.13
2023-05-14T15:25:58.340Z,2.55
2023-05-14T15:28:26.046Z,4.15
2023-05-14T15:30:55.049Z,3.90
2023-05-14T15:33:23.610Z,4.00
2023-05-14T15:35:51.384Z,2.97
2023-05-14T15:38:20.741Z,2.90
2023-05-14T15:40:48.678Z,3.20
2023-05-14T15:43:16.416Z,3.05
2023-05-14T15:45:45.851Z,5.18
2023-05-14T15:48:14.044Z,3.33
2023-05-14T15:50:41.988Z,3.03
2023-05-14T15:53:10.067Z,4.72
2023-05-14T15:55:39.268Z,4.68
2023-05-14T15:58:07.281Z,4.78
2023-05-14T16:00:35.109Z,3.95
2023-05-14T16:03:03.055Z,2.85
2023-05-14T16:05:31.049Z,2.38
2023-05-14T16:07:59.469Z,3.60
2023-05-14T16:10:27.394Z,2.90
2023-05-14T16:12:56.939Z,3.60
2023-05-14T16:15:24.805Z,2.28
2023-05-14T16:17:53.205Z,2.90
2023-05-14T16:20:21.073Z,2.97
2023-05-14T16:22:48.861Z,2.90
2023-05-14T16:25:18.578Z,3.67
2023-05-14T16:27:46.645Z,3.88
2023-05-14T16:30:16.324Z,2.50
2023-05-14T16:32:46.682Z,3.42
2023-05-14T16:35:14.652Z,2.53
2023-05-14T16:37:42.507Z,2.83
2023-05-14T16:40:12.144Z,2.63
2023-05-14T16:42:40.391Z,3.28
2023-05-14T16:45:09.539Z,3.40
2023-05-14T16:47:38.670Z,3.40
2023-05-14T16:50:08.204Z,2.03
2023-05-14T16:52:36.054Z,3.55
2023-05-14T16:55:03.956Z,3.03
2023-05-14T16:57:32.100Z,2.45
2023-05-14T16:59:59.983Z,2.50
2023-05-14T17:02:27.858Z,2.88
2023-05-14T17:04:57.207Z,2.30
2023-05-14T17:07:25.142Z,2.92
2023-05-14T17:09:53.021Z,2.88
2023-05-14T17:12:20.986Z,2.85
2023-05-14T17:14:48.945Z,3.08
2023-05-14T17:17:16.920Z,3.25
2023-05-14T17:19:45.844Z,3.28
2023-05-14T17:22:15.222Z,2.75
2023-05-14T17:24:43.346Z,2.60
2023-05-14T17:27:11.181Z,4.15
2023-05-14T17:29:38.941Z,3.22
2023-05-14T17:32:07.245Z,3.60
2023-05-14T17:34:35.122Z,3.83
2023-05-14T17:37:02.928Z,4.38
2023-05-14T17:39:32.152Z,3.20
2023-05-14T17:42:00.044Z,3.60
2023-05-14T17:44:27.947Z,2.67
2023-05-14T17:46:55.996Z,2.90
2023-05-14T17:49:23.800Z,3.05
2023-05-14T17:51:51.806Z,2.80
2023-05-14T17:54:19.602Z,4.28
2023-05-14T17:56:50.893Z,4.38
2023-05-14T17:59:19.052Z,4.70
2023-05-14T18:01:46.772Z,2.97
2023-05-14T18:04:15.111Z,3.40
2023-05-14T18:06:44.153Z,4.13
2023-05-14T18:09:11.939Z,2.55
2023-05-14T18:11:39.983Z,2.92
2023-05-14T18:14:09.231Z,3.13
2023-05-14T18:16:38.096Z,3.25
2023-05-14T18:19:06.213Z,3.70
2023-05-14T18:21:34.013Z,3.90
2023-05-14T18:24:02.006Z,4.18
2023-05-14T18:26:32.205Z,4.80
2023-05-14T18:29:01.598Z,5.20
2023-05-14T18:31:31.231Z,5.05
2023-05-14T18:33:59.088Z,6.80
2023-05-14T18:36:26.909Z,3.45
2023-05-14T18:38:56.721Z,4.07
2023-05-14T18:41:24.530Z,5.38
2023-05-14T18:43:52.252Z,3.53
2023-05-14T18:46:20.338Z,5.70
2023-05-14T18:48:50.026Z,3.60
2023-05-14T18:51:18.088Z,3.55
2023-05-14T18:53:45.975Z,4.95
2023-05-14T18:56:13.725Z,3.15
2023-05-14T18:58:41.613Z,5.55
2023-05-14T19:01:09.515Z,4.00
2023-05-14T19:03:37.810Z,4.17
2023-05-14T19:06:19.174Z,3.83
2023-05-14T19:08:52.269Z,4.15
2023-05-14T19:11:31.971Z,3.33
2023-05-14T19:14:11.082Z,5.03
2023-05-14T19:16:39.077Z,3.40
2023-05-14T19:19:07.114Z,3.97
2023-05-14T19:21:36.900Z,4.10
2023-05-14T19:24:05.577Z,3.72
2023-05-14T19:26:33.618Z,3.13
2023-05-14T19:29:02.025Z,3.45
2023-05-14T19:31:30.006Z,4.45
2023-05-14T19:33:57.956Z,4.38
2023-05-14T19:36:26.459Z,3.92
2023-05-14T19:39:00.741Z,5.00
2023-05-14T19:41:28.850Z,6.32
2023-05-14T19:43:56.608Z,4.88
2023-05-14T19:46:53.489Z,5.82
2023-05-14T19:49:38.551Z,3.70
2023-05-14T19:52:30.383Z,5.80
2023-05-14T19:55:11.552Z,5.70
2023-05-14T19:57:53.807Z,4.78
2023-05-14T20:00:32.614Z,5.22
2023-05-14T20:03:07.495Z,4.65
2023-05-14T20:05:38.736Z,4.10
2023-05-14T20:08:08.152Z,4.22
2023-05-14T20:10:45.963Z,5.05
2023-05-14T20:13:42.058Z,5.57
2023-05-14T20:16:13.595Z,3.47
2023-05-14T20:18:41.392Z,4.40
2023-05-14T20:21:09.706Z,3.87
2023-05-14T20:23:37.712Z,3.92
2023-05-14T20:26:06.800Z,5.55
2023-05-14T20:28:34.618Z,3.40
2023-05-14T20:31:04.036Z,3.45
2023-05-14T20:33:31.903Z,3.63
2023-05-14T20:36:00.307Z,5.30
2023-05-14T20:38:29.338Z,3.33
2023-05-14T20:40:57.146Z,4.60
2023-05-14T20:43:28.274Z,2.67
2023-05-14T20:45:58.659Z,4.63
2023-05-14T20:48:28.310Z,3.67
2023-05-14T20:50:56.150Z,4.55
2023-05-14T20:53:25.336Z,5.77
2023-05-14T20:55:53.353Z,5.23
2023-05-14T20:58:21.286Z,5.22
2023-05-14T21:00:50.443Z,6.95
2023-05-14T21:03:18.245Z,5.25
2023-05-14T21:05:46.083Z,5.05
2023-05-14T21:08:13.850Z,4.05
2023-05-14T21:10:41.512Z,4.28
2023-05-14T21:13:09.389Z,5.45
2023-05-14T21:15:37.145Z,3.92
2023-05-14T21:18:06.510Z,6.22
2023-05-14T21:20:36.538Z,7.03
2023-05-14T21:23:04.233Z,5.83
2023-05-14T21:25:32.010Z,6.18
2023-05-14T21:27:59.694Z,5.63
2023-05-14T21:30:27.820Z,4.30
2023-05-14T21:32:55.740Z,4.50
2023-05-14T21:35:25.290Z,4.53
2023-05-14T21:37:53.249Z,4.82
2023-05-14T21:40:20.966Z,5.07
2023-05-14T21:42:48.775Z,7.03
2023-05-14T21:45:16.701Z,4.50
2023-05-14T21:47:44.528Z,5.88
2023-05-14T21:50:13.020Z,4.55
2023-05-14T21:52:42.343Z,5.28
2023-05-14T21:55:10.681Z,4.95
2023-05-14T21:57:38.454Z,5.13
2023-05-14T22:00:11.358Z,6.45
2023-05-14T22:02:39.285Z,6.40
2023-05-14T22:05:07.365Z,6.40
2023-05-14T22:07:35.070Z,5.88
2023-05-14T22:10:04.542Z,6.07
2023-05-14T22:12:32.362Z,6.75
2023-05-14T22:15:00.169Z,5.50
2023-05-14T22:17:28.171Z,4.78
2023-05-14T22:19:55.973Z,5.87
2023-05-14T22:22:23.724Z,8.40
2023-05-14T22:24:51.494Z,7.57
2023-05-14T22:27:20.896Z,5.57
2023-05-14T22:29:48.733Z,4.97
2023-05-14T22:32:16.462Z,5.38
2023-05-14T22:34:44.243Z,6.15
2023-05-14T22:37:11.938Z,5.97
2023-05-14T22:39:39.647Z,4.47
2023-05-14T22:42:07.485Z,5.43
2023-05-14T22:44:37.036Z,5.57
2023-05-14T22:47:06.031Z,4.30
2023-05-14T22:49:33.876Z,5.17
2023-05-14T22:52:01.552Z,5.75
2023-05-14T22:54:29.321Z,4.75
2023-05-14T22:56:57.062Z,6.68
2023-05-14T22:59:24.858Z,6.87
2023-05-14T23:01:54.156Z,5.07
2023-05-14T23:04:21.972Z,5.15
2023-05-14T23:06:49.692Z,5.63
2023-05-14T23:09:17.532Z,6.30
2023-05-14T23:11:46.090Z,6.03
2023-05-14T23:14:13.949Z,7.55
2023-05-14T23:16:41.988Z,5.20
2023-05-14T23:19:11.495Z,5.43
2023-05-14T23:21:39.390Z,5.75
2023-05-14T23:24:07.995Z,6.22
2023-05-14T23:26:35.765Z,5.90
2023-05-14T23:29:03.618Z,5.75
2023-05-14T23:31:31.454Z,5.03
2023-05-14T23:33:59.483Z,4.47
2023-05-14T23:36:31.293Z,4.88
2023-05-14T23:38:59.194Z,5.50
2023-05-14T23:41:27.072Z,4.50
2023-05-14T23:43:55.430Z,5.82
2023-05-14T23:46:23.493Z,6.22
2023-05-14T23:48:52.054Z,6.03
2023-05-14T23:51:19.763Z,6.45
2023-05-14T23:53:48.928Z,5.80
2023-05-14T23:56:16.910Z,5.38
2023-05-14T23:58:44.720Z,5.07
